Time;durP1;ratioP1;P1;durP2;ratioP2;P2;SDS_P1;SDS_P2;PMS_P1;PMS_P2;Temp;Humidity;BMP_temperature;BMP_pressure;BME280_temperature;BME280_humidity;BME280_pressure;Samples;Min_cycle;Max_cycle;Signal;HPM_P1;HPM_P2
2022/08/23 00:01:15;;;;;;;8.23;3.00;;;17.40;99.90;;;;;;5056382;28;20091;-57
2022/08/23 00:03:42;;;;;;;6.63;3.13;;;17.30;99.90;;;;;;5056410;28;20033;-57
2022/08/23 00:06:09;;;;;;;9.68;2.92;;;17.20;99.90;;;;;;5056187;28;20025;-57
2022/08/23 00:08:36;;;;;;;10.00;3.47;;;17.20;99.90;;;;;;5056112;28;20491;-57
2022/08/23 00:11:03;;;;;;;10.60;3.38;;;17.30;99.90;;;;;;5056165;28;20029;-57
2022/08/23 00:13:30;;;;;;;6.78;3.20;;;17.30;99.90;;;;;;5055003;28;20029;-57
2022/08/23 00:15:57;;;;;;;6.53;3.90;;;17.20;99.90;;;;;;5056258;28;20021;-57
2022/08/23 00:18:23;;;;;;;53.05;5.13;;;17.30;99.90;;;;;;5068892;28;20032;-57
2022/08/23 00:20:50;;;;;;;10.80;4.18;;;17.20;99.90;;;;;;5076280;28;20054;-57
2022/08/23 00:23:16;;;;;;;11.20;4.75;;;17.20;99.90;;;;;;5076123;28;20107;-57
2022/08/23 00:25:42;;;;;;;12.23;5.03;;;17.20;99.90;;;;;;5076082;28;20474;-57
2022/08/23 00:28:08;;;;;;;9.50;5.55;;;17.20;99.90;;;;;;5064709;28;20100;-57
2022/08/23 00:30:35;;;;;;;15.88;7.43;;;17.30;99.90;;;;;;5055700;28;20025;-57
2022/08/23 00:33:02;;;;;;;13.35;6.60;;;17.40;99.90;;;;;;5054553;28;20035;-57
2022/08/23 00:35:28;;;;;;;9.77;5.28;;;17.50;99.90;;;;;;5053939;28;20029;-57
2022/08/23 00:37:57;;;;;;;22.75;5.53;;;17.50;99.90;;;;;;5056139;28;20029;-57
2022/08/23 00:40:23;;;;;;;9.68;4.72;;;17.50;99.90;;;;;;5055676;28;20037;-57
2022/08/23 00:48:56;;;;;;;10.90;4.22;;;17.60;99.90;;;;;;5046942;28;20047;-57
2022/08/23 00:51:34;;;;;;;9.95;4.47;;;17.50;99.90;;;;;;5054142;28;20039;-57
2022/08/23 00:54:00;;;;;;;9.18;4.47;;;17.50;99.90;;;;;;5054054;28;20025;-57
2022/08/23 00:56:32;;;;;;;11.30;3.97;;;17.50;99.90;;;;;;5055508;28;20421;-57
2022/08/23 00:58:58;;;;;;;7.68;4.45;;;17.60;99.90;;;;;;5054189;28;20032;-57
2022/08/23 01:01:25;;;;;;;12.57;4.30;;;17.50;99.90;;;;;;5054104;28;20029;-57
2022/08/23 01:03:54;;;;;;;9.25;3.67;;;17.50;99.90;;;;;;5055324;28;20112;-57
2022/08/23 01:06:20;;;;;;;8.88;3.05;;;17.50;99.90;;;;;;5055070;28;20029;-57
2022/08/23 01:08:54;;;;;;;7.90;2.95;;;17.50;99.90;;;;;;5054165;28;20462;-57
2022/08/23 01:11:31;;;;;;;8.75;3.28;;;17.50;99.90;;;;;;5053733;28;20041;-57
2022/08/23 01:14:10;;;;;;;5.18;3.28;;;17.40;99.90;;;;;;5053985;28;20120;-57
2022/08/23 01:16:55;;;;;;;5.65;3.20;;;17.30;99.90;;;;;;5053762;28;20043;-57
2022/08/23 01:19:42;;;;;;;13.48;3.47;;;17.40;99.90;;;;;;5033726;28;20044;-57
2022/08/23 01:22:18;;;;;;;8.20;3.03;;;17.30;99.90;;;;;;5035097;28;20424;-57
2022/08/23 01:24:45;;;;;;;10.13;3.33;;;17.30;99.90;;;;;;5035181;28;20053;-57
2022/08/23 01:27:12;;;;;;;8.25;3.10;;;17.30;99.90;;;;;;5036788;28;20033;-57
2022/08/23 01:29:39;;;;;;;7.55;3.47;;;17.30;99.90;;;;;;5054760;28;20041;-57
2022/08/23 01:32:07;;;;;;;11.85;3.75;;;17.30;99.90;;;;;;5053377;28;20029;-57
2022/08/23 01:34:35;;;;;;;9.65;3.20;;;17.30;99.90;;;;;;5054774;28;20056;-57
2022/08/23 01:37:06;;;;;;;7.07;3.00;;;17.40;99.90;;;;;;5053392;28;20024;-57
2022/08/23 01:39:36;;;;;;;;;;;17.40;99.90;;;;;;5053813;28;20494;-57
2022/08/23 01:42:06;;;;;;;10.23;3.63;;;17.40;99.90;;;;;;5053351;28;19913;-57
2022/08/23 01:44:33;;;;;;;10.68;3.80;;;17.40;99.90;;;;;;5053129;28;20040;-57
2022/08/23 01:47:00;;;;;;;11.85;3.35;;;17.40;99.90;;;;;;5053431;28;20229;-57
2022/08/23 01:49:26;;;;;;;9.68;3.13;;;17.30;99.90;;;;;;5053306;28;20131;-57
2022/08/23 01:51:52;;;;;;;11.95;3.65;;;17.30;99.90;;;;;;5053287;28;20060;-57
2022/08/23 01:54:18;;;;;;;9.82;3.75;;;17.40;99.90;;;;;;5053034;28;20830;-57
2022/08/23 01:56:46;;;;;;;7.80;4.07;;;17.50;99.90;;;;;;5053214;28;20478;-57
2022/08/23 01:59:13;;;;;;;7.00;3.55;;;17.40;99.90;;;;;;5053070;28;20100;-57
2022/08/23 02:01:44;;;;;;;7.85;3.83;;;17.50;99.90;;;;;;5053196;28;20029;-57
2022/08/23 02:04:10;;;;;;;7.38;4.20;;;17.50;99.90;;;;;;5053134;28;20045;-57
2022/08/23 02:06:37;;;;;;;7.72;3.30;;;17.50;99.90;;;;;;5054033;28;20025;-57
2022/08/23 02:09:05;;;;;;;9.20;3.75;;;17.50;99.90;;;;;;5053052;28;20039;-57
2022/08/23 02:11:39;;;;;;;;;;;17.40;99.90;;;;;;5053265;28;20041;-57
2022/08/23 02:14:11;;;;;;;9.13;3.50;;;17.30;99.90;;;;;;5054305;28;20407;-57
2022/08/23 02:16:51;;;;;;;9.95;3.50;;;17.30;99.90;;;;;;5052898;28;20506;-57
2022/08/23 02:19:19;;;;;;;8.07;3.20;;;17.40;99.90;;;;;;5072740;28;20091;-57
2022/08/23 02:21:45;;;;;;;6.70;3.97;;;17.50;99.90;;;;;;5073066;28;20032;-57
2022/08/23 02:24:15;;;;;;;9.55;3.55;;;17.50;99.90;;;;;;5072836;28;20033;-57
2022/08/23 02:26:46;;;;;;;8.10;3.35;;;17.40;99.90;;;;;;5074247;28;20078;-57
2022/08/23 02:29:15;;;;;;;7.10;3.15;;;17.50;99.90;;;;;;5032854;28;20033;-57
2022/08/23 02:31:43;;;;;;;9.32;3.40;;;17.40;99.90;;;;;;5049560;28;20036;-57
2022/08/23 02:34:11;;;;;;;10.18;2.97;;;17.40;99.90;;;;;;5033079;28;20083;-57
2022/08/23 02:36:37;;;;;;;12.50;2.92;;;17.40;99.90;;;;;;5033009;28;20052;-57
2022/08/23 02:39:06;;;;;;;8.68;3.58;;;17.40;99.90;;;;;;5033013;28;20042;-57
2022/08/23 02:41:33;;;;;;;11.68;3.60;;;17.40;99.90;;;;;;5049463;28;20391;-57
2022/08/23 02:43:59;;;;;;;6.10;3.83;;;17.30;99.90;;;;;;5032825;28;20037;-57
2022/08/23 02:46:26;;;;;;;8.50;3.28;;;17.40;99.90;;;;;;5049554;28;20344;-57
2022/08/23 02:48:52;;;;;;;7.40;3.83;;;17.30;99.90;;;;;;5032586;28;20049;-57
2022/08/23 02:51:18;;;;;;;4.28;3.42;;;17.30;99.90;;;;;;5032652;28;20040;-57
2022/08/23 02:53:44;;;;;;;9.15;3.40;;;17.40;99.90;;;;;;5033887;28;20033;-57
2022/08/23 02:56:13;;;;;;;5.75;3.40;;;17.30;99.90;;;;;;5032645;28;20037;-57
2022/08/23 02:58:39;;;;;;;6.43;3.40;;;17.30;99.90;;;;;;5035106;28;20099;-57
2022/08/23 03:01:13;;;;;;;7.45;3.20;;;17.30;99.90;;;;;;5053124;28;20032;-57
2022/08/23 03:03:39;;;;;;;10.93;3.22;;;17.30;99.90;;;;;;5052906;28;20037;-57
2022/08/23 03:06:05;;;;;;;6.28;3.20;;;17.40;99.90;;;;;;5037405;28;20037;-57
2022/08/23 03:08:31;;;;;;;6.78;3.33;;;17.30;99.90;;;;;;5052816;28;20457;-57
2022/08/23 03:10:58;;;;;;;7.03;3.25;;;17.40;99.90;;;;;;5036280;28;20026;-57
2022/08/23 03:13:23;;;;;;;9.40;3.55;;;17.30;99.90;;;;;;5052807;28;20082;-57
2022/08/23 03:15:50;;;;;;;8.85;3.30;;;17.30;99.90;;;;;;5037390;28;20029;-57
2022/08/23 03:18:16;;;;;;;10.48;2.97;;;17.30;99.90;;;;;;5060018;28;20111;-57
2022/08/23 03:20:43;;;;;;;7.55;3.03;;;17.30;99.90;;;;;;5077235;28;20108;-57
2022/08/23 03:23:11;;;;;;;10.18;3.35;;;17.40;99.90;;;;;;5076056;28;20238;-57
2022/08/23 03:25:38;;;;;;;6.25;3.17;;;17.40;99.90;;;;;;5076009;28;20028;-57
2022/08/23 03:28:15;;;;;;;7.47;2.78;;;17.40;99.90;;;;;;5063557;28;20547;-57
2022/08/23 03:30:43;;;;;;;6.90;3.00;;;17.40;99.90;;;;;;5056704;28;20501;-57
2022/08/23 03:33:11;;;;;;;7.80;3.17;;;17.40;99.90;;;;;;5055744;28;20124;-57
2022/08/23 03:35:37;;;;;;;6.57;2.58;;;17.40;99.90;;;;;;5055761;28;20032;-57
2022/08/23 03:38:03;;;;;;;6.80;2.50;;;17.40;99.90;;;;;;5055641;28;20509;-57
2022/08/23 03:40:30;;;;;;;7.18;2.85;;;17.40;99.90;;;;;;5055531;28;20028;-57
2022/08/23 03:42:55;;;;;;;3.83;2.45;;;17.40;99.90;;;;;;5057056;28;20474;-57
2022/08/23 03:45:24;;;;;;;5.53;2.97;;;17.40;99.90;;;;;;5055317;28;20356;-57
2022/08/23 03:47:50;;;;;;;8.13;3.10;;;17.40;99.90;;;;;;5055362;28;20383;-57
2022/08/23 03:50:17;;;;;;;6.65;2.97;;;17.40;99.90;;;;;;5055611;28;20094;-57
2022/08/23 03:52:43;;;;;;;6.85;3.00;;;17.40;99.90;;;;;;5055225;28;20425;-57
2022/08/23 03:55:10;;;;;;;8.77;2.63;;;17.40;99.90;;;;;;5055396;28;20116;-57
2022/08/23 03:57:40;;;;;;;12.63;3.00;;;17.40;99.90;;;;;;5055333;28;20132;-57
2022/08/23 04:00:09;;;;;;;6.63;3.10;;;17.40;99.90;;;;;;5055014;28;20047;-57
2022/08/23 04:02:40;;;;;;;10.25;3.20;;;17.40;99.90;;;;;;5056557;28;20025;-57
2022/08/23 04:05:09;;;;;;;9.60;3.10;;;17.40;99.90;;;;;;5055350;28;20072;-57
2022/08/23 04:07:52;;;;;;;8.52;2.70;;;17.40;99.90;;;;;;5055065;28;20056;-57
2022/08/23 04:10:22;;;;;;;5.45;3.05;;;17.50;99.90;;;;;;5053678;28;20036;-57
2022/08/23 04:12:53;;;;;;;4.70;3.50;;;17.50;99.90;;;;;;5056367;28;20090;-57
2022/08/23 04:15:21;;;;;;;4.75;2.97;;;17.40;99.90;;;;;;5056270;28;20029;-57
2022/08/23 04:17:47;;;;;;;5.45;3.38;;;17.40;99.90;;;;;;5063088;28;20081;-57
2022/08/23 04:20:15;;;;;;;7.07;3.55;;;17.40;99.90;;;;;;5074747;28;20029;-57
2022/08/23 04:23:07;;;;;;;4.97;3.22;;;17.40;99.90;;;;;;5076096;28;20041;-57
2022/08/23 04:25:44;;;;;;;10.27;3.83;;;17.40;99.90;;;;;;5074928;28;20059;-57
2022/08/23 04:28:10;;;;;;;9.93;3.53;;;17.50;99.90;;;;;;5062946;28;20025;-57
2022/08/23 04:30:37;;;;;;;12.95;3.92;;;17.50;99.90;;;;;;5054343;28;20032;-57
2022/08/23 04:33:03;;;;;;;6.55;4.07;;;17.50;99.90;;;;;;5054686;28;20025;-57
2022/08/23 04:35:31;;;;;;;6.75;3.45;;;17.60;99.90;;;;;;5054440;28;20086;-57
2022/08/23 04:37:57;;;;;;;4.93;3.42;;;17.50;99.90;;;;;;5055920;28;20020;-57
2022/08/23 04:43:09;;;;;;;8.68;4.28;;;17.60;99.90;;;;;;5054427;28;20025;-57
2022/08/23 04:45:40;;;;;;;22.75;5.38;;;17.60;99.90;;;;;;5054415;28;20078;-57
2022/08/23 04:48:11;;;;;;;8.75;4.30;;;17.70;99.90;;;;;;5054276;28;20052;-57
2022/08/23 04:50:39;;;;;;;10.25;4.28;;;17.60;99.90;;;;;;5054220;28;20398;-57
2022/08/23 04:53:17;;;;;;;10.75;4.60;;;17.60;99.90;;;;;;5054056;28;20112;-57
2022/08/23 04:55:54;;;;;;;7.40;4.10;;;17.50;99.90;;;;;;5054124;28;20043;-57
2022/08/23 04:58:21;;;;;;;14.00;5.50;;;17.60;99.90;;;;;;5054633;28;20032;-57
2022/08/23 05:00:51;;;;;;;17.05;6.88;;;17.60;99.90;;;;;;5054736;28;20052;-57
2022/08/23 05:03:21;;;;;;;16.52;6.60;;;17.70;99.90;;;;;;5054648;28;20063;-57
2022/08/23 05:05:47;;;;;;;18.52;6.47;;;17.60;99.90;;;;;;5053832;28;20037;-57
2022/08/23 05:08:14;;;;;;;22.15;9.00;;;17.60;99.90;;;;;;5053315;28;20036;-57
2022/08/23 05:10:40;;;;;;;17.95;8.30;;;17.60;99.90;;;;;;5028414;28;20033;-57
2022/08/23 05:13:07;;;;;;;19.63;8.40;;;17.50;99.90;;;;;;5045056;28;20634;-57
2022/08/23 05:15:32;;;;;;;19.73;9.52;;;17.50;99.90;;;;;;5054602;28;20206;-57
2022/08/23 05:18:03;;;;;;;;;;;17.60;99.90;;;;;;5053938;28;20031;-57
2022/08/23 05:20:31;;;;;;;32.10;14.88;;;17.60;99.90;;;;;;5052196;28;20389;-57
2022/08/23 05:22:59;;;;;;;38.42;17.33;;;17.60;99.90;;;;;;5054232;28;20024;-57
2022/08/23 05:25:49;;;;;;;32.97;16.10;;;17.70;99.90;;;;;;5053030;28;20043;-57
2022/08/23 05:28:26;;;;;;;39.83;16.67;;;17.60;99.90;;;;;;5045245;28;20030;-57
2022/08/23 05:31:02;;;;;;;33.85;15.35;;;17.70;99.90;;;;;;5051699;28;20036;-57
2022/08/23 05:33:35;;;;;;;25.92;12.95;;;17.80;99.90;;;;;;5047860;28;20099;-57
2022/08/23 05:36:03;;;;;;;30.90;14.13;;;17.70;99.90;;;;;;5039786;28;20095;-57
2022/08/23 05:38:30;;;;;;;28.08;13.00;;;17.70;99.90;;;;;;5048229;28;20021;-57
2022/08/23 05:40:58;;;;;;;24.73;12.35;;;17.80;99.90;;;;;;5053213;28;20493;-57
2022/08/23 05:43:25;;;;;;;27.38;13.00;;;17.80;99.90;;;;;;5052718;28;20029;-57
2022/08/23 05:46:11;;;;;;;26.35;13.07;;;17.80;99.90;;;;;;5050880;28;20486;-57
2022/08/23 05:48:45;;;;;;;24.58;11.02;;;17.90;99.90;;;;;;5052864;28;20501;-57
2022/08/23 05:51:18;;;;;;;27.17;11.80;;;17.90;99.90;;;;;;5053199;28;20033;-57
2022/08/23 05:53:46;;;;;;;23.90;10.02;;;18.00;99.90;;;;;;5052272;28;20136;-57
2022/08/23 05:56:16;;;;;;;20.85;9.25;;;18.10;99.90;;;;;;5051970;28;20051;-57
2022/08/23 05:58:43;;;;;;;18.45;8.32;;;18.10;99.90;;;;;;5053145;28;20021;-57
2022/08/23 06:01:10;;;;;;;13.70;7.80;;;18.10;99.90;;;;;;5050670;28;20020;-57
2022/08/23 06:03:37;;;;;;;16.42;8.40;;;18.20;99.90;;;;;;5050608;28;20021;-57
2022/08/23 06:06:05;;;;;;;16.08;6.68;;;18.20;99.90;;;;;;5052227;28;20440;-57
2022/08/23 06:08:33;;;;;;;9.77;5.18;;;18.20;99.90;;;;;;5048169;28;20037;-57
2022/08/23 06:11:06;;;;;;;11.85;5.22;;;18.30;99.90;;;;;;5052286;28;20025;-57
2022/08/23 06:13:46;;;;;;;6.45;4.25;;;18.30;99.90;;;;;;5078603;28;20023;-57
2022/08/23 06:16:14;;;;;;;10.05;5.00;;;18.40;99.90;;;;;;5066738;28;20021;-57
2022/08/23 06:18:40;;;;;;;11.32;4.68;;;18.50;99.90;;;;;;5050927;28;20505;-57
2022/08/23 06:21:33;;;;;;;5.78;3.30;;;18.50;99.90;;;;;;5040163;28;20037;-57
2022/08/23 06:24:00;;;;;;;7.05;4.22;;;18.60;99.90;;;;;;5046915;28;20491;-57
2022/08/23 06:26:30;;;;;;;9.55;4.15;;;18.60;99.90;;;;;;5034003;28;20505;-57
2022/08/23 06:28:58;;;;;;;13.45;4.60;;;18.60;99.90;;;;;;5049345;28;20028;-57
2022/08/23 06:31:44;;;;;;;6.72;3.95;;;18.70;99.90;;;;;;5051308;28;20045;-57
2022/08/23 06:34:16;;;;;;;10.00;3.80;;;18.90;99.90;;;;;;5039176;28;20032;-57
2022/08/23 06:37:13;;;;;;;9.32;3.63;;;19.00;99.90;;;;;;5048486;28;20126;-57
2022/08/23 06:39:57;;;;;;;20.05;4.63;;;19.00;99.90;;;;;;5054270;28;20036;-57
2022/08/23 06:42:44;;;;;;;8.88;2.92;;;19.10;99.90;;;;;;5056579;28;20101;-57
2022/08/23 06:45:10;;;;;;;6.85;2.97;;;19.10;99.90;;;;;;5038946;28;20026;-57
2022/08/23 06:47:39;;;;;;;9.30;3.00;;;19.10;99.90;;;;;;5056884;28;20044;-57
2022/08/23 06:50:05;;;;;;;7.18;3.10;;;19.10;99.90;;;;;;5057798;28;20036;-57
2022/08/23 06:53:07;;;;;;;8.80;2.92;;;19.10;99.90;;;;;;5062480;28;20567;-57
2022/08/23 06:55:52;;;;;;;3.30;2.28;;;19.00;99.90;;;;;;5056173;28;20036;-57
2022/08/23 06:58:44;;;;;;;13.75;4.72;;;19.10;99.90;;;;;;5055607;28;20076;-57
2022/08/23 07:01:44;;;;;;;10.73;3.40;;;19.10;99.90;;;;;;5052007;28;20036;-57
2022/08/23 07:04:23;;;;;;;16.95;4.97;;;19.20;99.90;;;;;;5052405;28;20596;-57
2022/08/23 07:07:08;;;;;;;14.32;3.63;;;19.20;99.90;;;;;;5054044;28;20036;-57
2022/08/23 07:09:35;;;;;;;7.53;2.50;;;19.10;99.90;;;;;;5036808;28;20164;-57
2022/08/23 07:12:02;;;;;;;9.57;3.10;;;19.20;99.90;;;;;;5055512;28;20052;-57
2022/08/23 07:14:31;;;;;;;10.43;2.75;;;19.20;99.90;;;;;;5055177;28;20021;-57
2022/08/23 07:17:00;;;;;;;27.75;4.28;;;19.20;99.90;;;;;;5057405;28;20025;-57
2022/08/23 07:19:29;;;;;;;7.60;3.63;;;19.20;99.90;;;;;;5076255;28;20025;-57
2022/08/23 07:21:57;;;;;;;11.02;3.97;;;19.20;99.90;;;;;;5074073;28;20060;-57
2022/08/23 07:24:33;;;;;;;17.60;5.13;;;19.10;99.90;;;;;;5056218;28;20028;-57
2022/08/23 07:27:05;;;;;;;16.08;4.47;;;19.10;99.90;;;;;;5054727;28;20043;-57
2022/08/23 07:29:31;;;;;;;9.38;4.00;;;19.20;99.90;;;;;;5055292;28;20036;-57
2022/08/23 07:31:57;;;;;;;7.55;4.05;;;19.20;99.90;;;;;;5053865;28;20029;-57
2022/08/23 07:34:24;;;;;;;7.85;4.22;;;19.20;99.90;;;;;;5051168;28;20489;-57
2022/08/23 07:36:52;;;;;;;12.40;5.15;;;19.20;99.90;;;;;;5064767;28;20033;-57
2022/08/23 07:39:19;;;;;;;11.90;3.75;;;19.20;99.90;;;;;;5054777;28;20025;-57
2022/08/23 07:41:45;;;;;;;10.55;4.50;;;19.10;99.90;;;;;;5059575;28;20501;-57
2022/08/23 07:44:12;;;;;;;7.63;3.22;;;19.20;99.90;;;;;;5055373;28;20119;-57
2022/08/23 07:46:42;;;;;;;4.13;2.75;;;19.30;99.90;;;;;;5051889;28;20156;-57
2022/08/23 07:49:10;;;;;;;16.17;4.43;;;19.20;99.90;;;;;;5050488;28;20045;-57
2022/08/23 07:51:46;;;;;;;16.60;4.28;;;19.30;99.90;;;;;;5053487;28;20036;-57
2022/08/23 07:54:14;;;;;;;15.15;3.78;;;19.20;99.90;;;;;;5051343;28;20108;-57
2022/08/23 07:57:13;;;;;;;10.25;4.38;;;19.30;99.90;;;;;;5051469;28;20043;-57
2022/08/23 08:00:06;;;;;;;6.32;3.08;;;19.30;99.90;;;;;;5054793;28;20040;-57
2022/08/23 08:02:51;;;;;;;12.30;4.20;;;19.30;99.90;;;;;;5050702;28;20353;-57
2022/08/23 08:05:22;;;;;;;19.05;5.80;;;19.30;99.90;;;;;;5049757;28;20025;-57
2022/08/23 08:07:49;;;;;;;6.82;2.67;;;19.30;99.90;;;;;;5053644;28;20080;-57
2022/08/23 08:10:15;;;;;;;6.85;2.92;;;19.30;99.90;;;;;;5055319;28;20036;-57
2022/08/23 08:12:41;;;;;;;13.23;3.40;;;19.30;99.90;;;;;;5050871;28;20075;-57
2022/08/23 08:15:17;;;;;;;12.35;3.78;;;19.40;99.90;;;;;;5040295;28;20074;-57
2022/08/23 08:17:54;;;;;;;12.25;3.42;;;19.50;99.90;;;;;;5062284;28;20111;-57
2022/08/23 08:20:21;;;;;;;7.65;2.47;;;19.50;99.90;;;;;;5076064;28;20036;-58
2022/08/23 08:23:06;;;;;;;2.95;1.80;;;19.50;99.90;;;;;;5060439;28;20088;-57
2022/08/23 08:26:10;;;;;;;3.30;1.73;;;19.60;99.90;;;;;;5040600;28;20037;-57
2022/08/23 08:28:55;;;;;;;3.35;2.20;;;19.60;99.90;;;;;;5050134;28;20036;-57
2022/08/23 08:31:27;;;;;;;9.93;3.13;;;19.60;99.90;;;;;;5052445;28;20044;-57
2022/08/23 08:33:53;;;;;;;6.53;2.05;;;19.60;99.90;;;;;;5053209;28;20025;-57
2022/08/23 08:37:01;;;;;;;5.32;1.90;;;19.60;99.90;;;;;;5050470;28;20810;-57
2022/08/23 08:40:05;;;;;;;8.95;2.90;;;19.60;99.90;;;;;;5001530;28;20064;-57
2022/08/23 08:42:53;;;;;;;8.63;3.28;;;19.60;99.90;;;;;;5001770;28;20115;-57
2022/08/23 08:45:58;;;;;;;10.32;3.03;;;19.60;99.90;;;;;;5009317;28;20044;-57
2022/08/23 08:48:27;;;;;;;13.93;3.53;;;19.70;99.90;;;;;;5012105;28;20053;-57
2022/08/23 08:51:17;;;;;;;6.95;2.72;;;19.70;99.90;;;;;;5013580;28;20133;-57
2022/08/23 08:53:52;;;;;;;7.05;3.25;;;19.70;99.90;;;;;;5013173;28;20034;-57
2022/08/23 08:56:51;;;;;;;6.90;3.00;;;19.70;99.90;;;;;;5029149;28;20030;-57
2022/08/23 08:59:26;;;;;;;5.65;2.08;;;19.60;99.90;;;;;;5025542;28;20380;-57
2022/08/23 09:01:56;;;;;;;6.82;3.20;;;19.40;99.90;;;;;;4996107;28;20519;-57
2022/08/23 09:04:31;;;;;;;3.85;2.78;;;19.40;99.90;;;;;;5028451;28;20037;-57
2022/08/23 09:07:26;;;;;;;3.97;2.85;;;19.30;99.90;;;;;;5049079;28;20025;-57
2022/08/23 09:10:06;;;;;;;17.55;4.15;;;19.10;99.90;;;;;;5050279;28;20382;-57
2022/08/23 09:12:56;;;;;;;17.70;4.63;;;19.20;99.90;;;;;;5049750;28;20148;-57
2022/08/23 09:15:32;;;;;;;6.30;3.00;;;19.20;99.90;;;;;;5051981;28;20111;-57
2022/08/23 09:18:14;;;;;;;11.57;3.60;;;19.20;99.90;;;;;;5052654;28;20033;-57
2022/08/23 09:20:44;;;;;;;10.52;4.03;;;19.20;99.90;;;;;;5052533;28;20033;-57
2022/08/23 09:23:21;;;;;;;10.00;4.03;;;19.30;99.90;;;;;;5052649;28;20029;-57
2022/08/23 09:26:01;;;;;;;7.53;3.83;;;19.20;99.90;;;;;;5052328;28;20155;-57
2022/08/23 09:28:37;;;;;;;15.45;5.97;;;19.30;99.90;;;;;;5043148;28;20022;-57
2022/08/23 09:31:06;;;;;;;8.20;4.78;;;19.30;99.90;;;;;;5052953;28;20510;-57
2022/08/23 09:33:41;;;;;;;10.90;4.05;;;19.40;99.90;;;;;;5049495;28;20290;-57
2022/08/23 09:36:34;;;;;;;14.10;5.33;;;19.40;99.90;;;;;;5052420;28;20051;-57
2022/08/23 09:39:04;;;;;;;21.27;5.72;;;19.50;99.90;;;;;;5048208;28;20028;-57
2022/08/23 09:41:38;;;;;;;15.70;5.20;;;19.50;99.90;;;;;;5052008;28;20390;-57
2022/08/23 09:44:28;;;;;;;11.00;4.57;;;19.40;99.90;;;;;;5049078;28;20064;-57
2022/08/23 09:47:05;;;;;;;12.25;5.55;;;19.40;99.90;;;;;;5049207;28;20376;-57
2022/08/23 09:49:32;;;;;;;17.77;7.82;;;19.40;99.90;;;;;;5050080;28;20068;-57
2022/08/23 09:52:34;;;;;;;16.40;7.80;;;19.30;99.90;;;;;;5049570;28;20057;-57
2022/08/23 09:55:08;;;;;;;17.52;8.80;;;19.40;99.90;;;;;;5044472;28;20424;-57
2022/08/23 09:57:38;;;;;;;16.65;9.02;;;19.40;99.90;;;;;;5048341;28;20025;-57
2022/08/23 10:00:26;;;;;;;18.10;9.20;;;19.30;99.90;;;;;;5043850;28;20124;-57
2022/08/23 10:02:56;;;;;;;16.20;8.18;;;19.30;99.90;;;;;;5047067;28;20493;-57
2022/08/23 10:05:40;;;;;;;13.57;7.80;;;19.30;99.90;;;;;;5042812;28;20028;-57
2022/08/23 10:08:27;;;;;;;20.98;9.15;;;19.10;99.90;;;;;;5031593;28;20030;-57
2022/08/23 10:11:17;;;;;;;25.10;11.27;;;19.00;99.90;;;;;;5050485;28;20033;-57
2022/08/23 10:13:43;;;;;;;24.80;11.02;;;19.10;99.90;;;;;;5049056;28;20041;-57
2022/08/23 10:16:36;;;;;;;19.92;10.35;;;19.00;99.90;;;;;;5052150;28;20544;-57
2022/08/23 10:19:27;;;;;;;26.95;11.98;;;19.00;99.90;;;;;;5056637;28;20071;-57
2022/08/23 10:22:10;;;;;;;27.55;11.90;;;19.20;99.90;;;;;;5067349;28;20044;-57
2022/08/23 10:24:44;;;;;;;19.10;11.10;;;19.30;99.90;;;;;;5051728;28;20486;-57
2022/08/23 10:30:22;;;;;;;17.52;9.57;;;19.40;99.90;;;;;;5044365;28;20025;-57
2022/08/23 10:33:11;;;;;;;25.17;11.65;;;19.50;99.90;;;;;;5059930;28;20071;-57
2022/08/23 10:35:47;;;;;;;23.15;11.30;;;19.60;99.90;;;;;;5049733;28;20025;-57
2022/08/23 10:38:45;;;;;;;24.80;10.50;;;19.70;99.90;;;;;;5048306;28;20021;-57
2022/08/23 10:41:49;;;;;;;26.52;10.18;;;19.70;99.90;;;;;;5047953;28;20052;-57
2022/08/23 10:44:26;;;;;;;25.17;10.30;;;19.70;99.90;;;;;;5045374;28;20391;-57
2022/08/23 10:47:06;;;;;;;29.15;13.32;;;19.80;99.90;;;;;;5064528;28;20024;-57
2022/08/23 10:49:36;;;;;;;24.73;10.52;;;20.00;99.90;;;;;;5070605;28;20045;-57
2022/08/23 10:52:06;;;;;;;23.60;10.20;;;20.20;99.90;;;;;;5035509;28;20074;-57
2022/08/23 10:54:59;;;;;;;18.40;8.80;;;20.30;99.90;;;;;;5050103;28;20518;-57
2022/08/23 10:57:36;;;;;;;14.93;8.50;;;20.30;99.90;;;;;;5051032;28;20506;-57
2022/08/23 11:00:07;;;;;;;14.65;7.95;;;20.40;99.90;;;;;;5039549;28;20045;-57
2022/08/23 11:02:49;;;;;;;20.35;9.18;;;20.50;99.90;;;;;;5046667;28;20445;-57
2022/08/23 11:05:32;;;;;;;23.13;10.15;;;20.50;99.90;;;;;;5032345;28;20026;-57
2022/08/23 11:08:11;;;;;;;16.85;9.07;;;20.80;99.90;;;;;;5032133;28;20116;-57
2022/08/23 11:10:38;;;;;;;23.83;10.90;;;20.80;99.90;;;;;;5032653;28;20041;-57
2022/08/23 11:13:06;;;;;;;17.15;8.85;;;20.70;99.90;;;;;;5034250;28;20032;-57
2022/08/23 11:15:42;;;;;;;14.00;8.55;;;20.50;99.90;;;;;;5032378;28;20444;-57
2022/08/23 11:18:29;;;;;;;13.77;8.52;;;20.20;99.90;;;;;;5053884;28;20458;-57
2022/08/23 11:21:03;;;;;;;34.42;13.95;;;20.40;99.90;;;;;;5076420;28;20385;-57
2022/08/23 11:23:37;;;;;;;21.83;13.02;;;20.70;99.90;;;;;;5072251;28;20521;-57
2022/08/23 11:26:10;;;;;;;18.27;8.48;;;20.70;99.90;;;;;;5048791;28;20704;-57
2022/08/23 11:28:41;;;;;;;16.27;9.60;;;20.80;99.90;;;;;;5051907;28;20033;-57
2022/08/23 11:31:09;;;;;;;17.42;9.30;;;20.90;99.90;;;;;;5040918;28;20029;-57
2022/08/23 11:34:01;;;;;;;17.50;10.23;;;20.80;99.90;;;;;;5056864;28;20036;-57
2022/08/23 11:36:31;;;;;;;14.65;9.52;;;20.90;99.90;;;;;;5047017;28;20095;-57
2022/08/23 11:38:57;;;;;;;18.17;10.25;;;21.00;99.90;;;;;;5056416;28;20025;-57
2022/08/23 11:41:52;;;;;;;16.40;9.02;;;21.10;99.90;;;;;;5051267;28;20043;-57
2022/08/23 11:44:31;;;;;;;18.52;10.45;;;21.00;99.90;;;;;;5064565;28;20037;-57
2022/08/23 11:47:02;;;;;;;15.88;9.70;;;20.80;99.90;;;;;;5055526;28;20076;-57
2022/08/23 11:50:02;;;;;;;19.13;8.70;;;20.80;99.90;;;;;;5053991;28;20048;-57
2022/08/23 11:52:30;;;;;;;23.17;10.35;;;20.70;99.90;;;;;;5055003;28;20387;-57
2022/08/23 11:55:18;;;;;;;14.45;8.77;;;20.80;99.90;;;;;;5056652;28;20454;-57
2022/08/23 11:58:22;;;;;;;12.93;9.23;;;20.80;99.90;;;;;;5056277;28;20098;-57
2022/08/23 12:01:07;;;;;;;18.70;9.73;;;20.70;99.90;;;;;;5056315;28;20467;-57
2022/08/23 12:03:59;;;;;;;15.25;8.57;;;20.70;99.90;;;;;;5056375;28;20032;-57
2022/08/23 12:06:42;;;;;;;15.90;8.70;;;20.80;99.90;;;;;;5055642;28;20028;-57
2022/08/23 12:09:22;;;;;;;15.75;9.52;;;20.80;99.90;;;;;;5056176;28;20017;-57
2022/08/23 12:11:48;;;;;;;;;;;20.80;99.90;;;;;;5056294;28;20111;-57
2022/08/23 12:14:29;;;;;;;15.10;8.65;;;20.70;99.90;;;;;;5055290;28;19909;-57
2022/08/23 12:17:00;;;;;;;12.25;8.63;;;20.70;99.90;;;;;;5055610;28;20075;-57
2022/08/23 12:19:32;;;;;;;;;;;20.60;99.90;;;;;;5054656;28;20490;-57
2022/08/23 12:22:14;;;;;;;22.23;10.68;;;20.50;99.90;;;;;;5045388;28;19955;-57
2022/08/23 12:25:02;;;;;;;17.48;10.35;;;20.50;99.90;;;;;;5041205;28;20032;-57
2022/08/23 12:27:54;;;;;;;17.67;11.13;;;20.40;99.90;;;;;;5049599;28;20467;-57
2022/08/23 12:30:51;;;;;;;21.30;11.73;;;20.40;99.90;;;;;;5044552;28;20033;-57
2022/08/23 12:33:48;;;;;;;24.00;11.65;;;20.30;99.90;;;;;;5049011;28;20112;-57
2022/08/23 12:36:31;;;;;;;25.33;13.20;;;20.30;99.90;;;;;;5049539;28;20032;-57
2022/08/23 12:39:03;;;;;;;32.20;13.93;;;20.20;99.90;;;;;;5035868;28;20032;-57
2022/08/23 12:41:48;;;;;;;33.60;15.13;;;20.20;99.90;;;;;;5045983;28;20021;-57
2022/08/23 12:44:19;;;;;;;28.98;14.75;;;20.20;99.90;;;;;;5055634;28;20043;-57
2022/08/23 12:46:48;;;;;;;29.45;13.77;;;20.20;99.90;;;;;;5053274;28;20479;-57
2022/08/23 12:49:25;;;;;;;29.35;13.30;;;20.30;99.90;;;;;;5043631;28;20045;-57
2022/08/23 12:51:55;;;;;;;28.63;13.02;;;20.30;99.90;;;;;;5050392;28;20037;-57
2022/08/23 12:54:34;;;;;;;31.98;16.63;;;20.40;99.90;;;;;;5053879;28;20025;-57
2022/08/23 12:57:00;;;;;;;29.10;14.68;;;20.30;99.90;;;;;;5054211;28;20459;-57
2022/08/23 12:59:31;;;;;;;37.97;16.00;;;20.40;99.90;;;;;;5044133;28;20018;-57
2022/08/23 13:01:59;;;;;;;44.13;19.88;;;20.50;99.90;;;;;;5035326;28;20076;-57
2022/08/23 13:04:25;;;;;;;32.03;19.15;;;20.50;99.90;;;;;;5035350;28;20558;-57
2022/08/23 13:06:56;;;;;;;39.72;20.52;;;20.50;99.90;;;;;;5035330;28;20068;-57
2022/08/23 13:09:35;;;;;;;40.75;21.70;;;20.40;99.90;;;;;;5035241;28;20105;-57
2022/08/23 13:12:02;;;;;;;56.90;29.40;;;20.40;99.90;;;;;;5035063;28;20041;-57
2022/08/23 13:14:45;;;;;;;61.90;30.08;;;20.30;99.90;;;;;;5035171;28;20025;-57
2022/08/23 13:17:16;;;;;;;52.55;32.47;;;20.40;99.90;;;;;;5041232;28;20024;-57
2022/08/23 13:19:41;;;;;;;;;;;20.40;99.90;;;;;;5075446;28;20060;-57
2022/08/23 13:22:20;;;;;;;65.60;36.40;;;20.50;99.90;;;;;;5075142;28;19908;-57
2022/08/23 13:25:06;;;;;;;73.50;37.70;;;20.50;99.90;;;;;;5075007;28;20208;-57
2022/08/23 13:27:35;;;;;;;77.50;40.10;;;20.50;99.90;;;;;;5068723;28;20044;-57